createdAt,value
2018-09-05T00:00:57.475Z,89.07
2018-09-05T00:01:57.480Z,89.54
2018-09-05T00:02:57.479Z,89.26
2018-09-05T00:03:57.484Z,89.74
2018-09-05T00:04:57.491Z,90.03
2018-09-05T00:05:57.498Z,90.27
2018-09-05T00:06:57.503Z,90.12
2018-09-05T00:07:57.513Z,90.12
2018-09-05T00:08:57.514Z,89.26
2018-09-05T00:09:57.523Z,89.16
2018-09-05T00:10:57.532Z,88.30
2018-09-05T00:11:57.540Z,88.20
2018-09-05T00:12:57.542Z,88.87
2018-09-05T00:13:57.549Z,88.39
2018-09-05T00:14:57.555Z,87.62
2018-09-05T00:15:57.557Z,88.20
2018-09-05T00:16:57.563Z,88.59
2018-09-05T00:17:57.573Z,88.59
2018-09-05T00:18:57.590Z,89.07
2018-09-05T00:19:57.581Z,89.36
2018-09-05T00:20:57.587Z,89.07
2018-09-05T00:21:57.593Z,89.60
2018-09-05T00:22:57.598Z,90.56
2018-09-05T00:23:57.606Z,89.98
2018-09-05T00:24:57.630Z,89.98
2018-09-05T00:25:57.626Z,90.17
2018-09-05T00:26:57.623Z,89.36
2018-09-05T00:27:57.630Z,88.59
2018-09-05T00:28:57.639Z,89.79
2018-09-05T00:29:57.645Z,89.60
2018-09-05T00:30:57.643Z,89.54
2018-09-05T00:31:57.652Z,89.60
2018-09-05T00:32:57.655Z,89.54
2018-09-05T00:33:57.662Z,89.22
2018-09-05T00:34:57.671Z,89.26
2018-09-05T00:35:57.677Z,89.40
2018-09-05T00:36:57.679Z,89.89
2018-09-05T00:37:57.686Z,90.08
2018-09-05T00:38:57.690Z,90.17
2018-09-05T00:39:57.695Z,91.13
2018-09-05T00:40:57.705Z,89.69
2018-09-05T00:41:57.716Z,89.89
2018-09-05T00:42:57.719Z,90.27
2018-09-05T00:43:57.727Z,89.40
2018-09-05T00:44:57.726Z,90.17
2018-09-05T00:45:57.734Z,90.08
2018-09-05T00:46:57.742Z,89.02
2018-09-05T00:47:57.743Z,89.40
2018-09-05T00:48:57.747Z,89.22
2018-09-05T00:49:57.760Z,88.64
2018-09-05T00:50:57.760Z,89.12
2018-09-05T00:51:57.765Z,89.02
2018-09-05T00:52:57.781Z,89.50
2018-09-05T00:53:57.777Z,89.12
2018-09-05T00:54:57.783Z,89.69
2018-09-05T00:55:57.788Z,89.94
2018-09-05T00:56:57.795Z,90.17
2018-09-05T00:57:57.801Z,90.22
2018-09-05T00:58:57.807Z,90.52
2018-09-05T00:59:57.819Z,89.69
2018-09-05T01:00:57.828Z,89.22
2018-09-05T01:01:57.821Z,89.12
2018-09-05T01:02:57.837Z,88.54
2018-09-05T01:03:57.833Z,88.54
2018-09-05T01:04:57.841Z,88.45
2018-09-05T01:05:57.845Z,88.54
2018-09-05T01:06:57.856Z,88.01
2018-09-05T01:07:57.858Z,88.45
2018-09-05T01:08:57.868Z,88.49
2018-09-05T01:09:57.875Z,87.62
2018-09-05T01:10:57.877Z,88.01
2018-09-05T01:11:57.878Z,87.43
2018-09-05T01:12:58.829Z,87.77
2018-09-05T01:13:57.902Z,88.64
2018-09-05T01:14:57.894Z,88.35
2018-09-05T01:15:57.901Z,88.83
2018-09-05T01:16:57.912Z,89.22
2018-09-05T01:17:57.971Z,89.31
2018-09-05T01:18:57.931Z,89.60
2018-09-05T01:19:57.934Z,89.22
2018-09-05T01:20:58.880Z,89.60
2018-09-05T01:21:57.945Z,89.84
2018-09-05T01:22:57.941Z,89.60
2018-09-05T01:23:57.945Z,89.75
2018-09-05T01:24:57.950Z,89.69
2018-09-05T01:25:57.972Z,89.46
2018-09-05T01:26:57.962Z,89.98
2018-09-05T01:27:57.972Z,89.69
2018-09-05T01:28:57.971Z,88.98
2018-09-05T01:29:57.983Z,89.31
2018-09-05T01:30:57.983Z,88.35
2018-09-05T01:31:57.988Z,88.83
2018-09-05T01:32:58.001Z,88.73
2018-09-05T01:33:58.000Z,88.73
2018-09-05T01:34:58.010Z,87.68
2018-09-05T01:36:12.756Z,88.35
2018-09-05T01:36:58.020Z,88.64
2018-09-05T01:37:58.020Z,89.07
2018-09-05T01:38:58.027Z,88.88
2018-09-05T01:39:58.031Z,89.17
2018-09-05T01:40:58.070Z,89.36
2018-09-05T01:41:58.045Z,89.46
2018-09-05T01:42:58.097Z,89.46
2018-09-05T01:43:58.056Z,89.94
2018-09-05T01:44:58.064Z,90.03
2018-09-05T01:45:58.069Z,89.75
2018-09-05T01:46:58.081Z,90.42
2018-09-05T01:47:58.081Z,90.32
2018-09-05T01:48:58.082Z,90.42
2018-09-05T01:49:58.091Z,89.65
2018-09-05T01:50:58.103Z,88.69
2018-09-05T01:51:58.098Z,88.54
2018-09-05T01:52:58.108Z,88.54
2018-09-05T01:53:58.108Z,88.06
2018-09-05T01:54:58.116Z,88.06
2018-09-05T01:55:58.121Z,88.40
2018-09-05T01:56:58.130Z,88.16
2018-09-05T01:57:58.130Z,88.11
2018-09-05T01:58:58.149Z,88.88
2018-09-05T01:59:58.140Z,88.98
2018-09-05T02:00:58.148Z,90.03
2018-09-05T02:01:58.149Z,88.49
2018-09-05T02:02:58.158Z,89.36
2018-09-05T02:03:58.169Z,88.98
2018-09-05T02:04:58.174Z,89.65
2018-09-05T02:05:58.179Z,89.84
2018-09-05T02:06:58.179Z,89.46
2018-09-05T02:07:58.185Z,89.07
2018-09-05T02:08:58.188Z,88.98
2018-09-05T02:09:58.195Z,89.94
2018-09-05T02:10:58.200Z,89.75
2018-09-05T02:11:58.205Z,88.69
2018-09-05T02:12:58.213Z,88.31
2018-09-05T02:13:58.218Z,88.79
2018-09-05T02:14:58.232Z,87.73
2018-09-05T02:15:58.254Z,87.73
2018-09-05T02:16:58.227Z,87.82
2018-09-05T02:17:58.234Z,88.88
2018-09-05T02:18:58.246Z,88.49
2018-09-05T02:19:58.245Z,89.07
2018-09-05T02:20:58.251Z,88.31
2018-09-05T02:21:58.257Z,88.79
2018-09-05T02:22:58.260Z,88.49
2018-09-05T02:23:58.269Z,88.69
2018-09-05T02:24:58.272Z,88.98
2018-09-05T02:25:58.277Z,89.75
2018-09-05T02:26:58.282Z,89.79
2018-09-05T02:27:58.289Z,90.28
2018-09-05T02:28:58.291Z,89.65
2018-09-05T02:29:58.297Z,89.46
2018-09-05T02:30:58.311Z,89.46
2018-09-05T02:31:58.314Z,90.18
2018-09-05T02:32:58.316Z,90.37
2018-09-05T02:33:58.329Z,90.18
2018-09-05T02:34:58.331Z,90.03
2018-09-05T02:35:58.333Z,89.94
2018-09-05T02:36:58.335Z,89.46
2018-09-05T02:37:58.340Z,89.89
2018-09-05T02:38:58.344Z,90.56
2018-09-05T02:39:58.349Z,90.52
2018-09-05T02:40:58.357Z,89.46
2018-09-05T02:41:58.361Z,88.98
2018-09-05T02:42:58.370Z,89.46
2018-09-05T02:43:58.368Z,88.59
2018-09-05T02:44:58.378Z,88.40
2018-09-05T02:45:58.382Z,87.92
2018-09-05T02:46:58.392Z,88.49
2018-09-05T02:47:58.389Z,87.92
2018-09-05T02:48:58.394Z,89.61
2018-09-05T02:49:58.401Z,90.13
2018-09-05T02:50:58.404Z,88.93
2018-09-05T02:51:58.413Z,89.46
2018-09-05T02:52:58.420Z,88.59
2018-09-05T02:53:58.427Z,89.22
2018-09-05T02:54:58.434Z,89.61
2018-09-05T02:55:58.435Z,89.70
2018-09-05T02:56:58.439Z,89.26
2018-09-05T02:57:58.446Z,88.59
2018-09-05T02:58:58.448Z,88.88
2018-09-05T02:59:58.458Z,89.51
2018-09-05T03:00:58.459Z,89.07
2018-09-05T03:01:58.468Z,89.51
2018-09-05T03:02:58.473Z,89.41
2018-09-05T03:03:58.471Z,88.88
2018-09-05T03:04:58.479Z,89.51
2018-09-05T03:05:58.483Z,89.51
2018-09-05T03:06:58.486Z,89.26
2018-09-05T03:07:58.490Z,88.59
2018-09-05T03:08:58.502Z,88.49
2018-09-05T03:09:58.501Z,89.17
2018-09-05T03:10:58.509Z,89.07
2018-09-05T03:11:58.512Z,88.93
2018-09-05T03:12:58.517Z,89.07
2018-09-05T03:13:58.533Z,88.74
2018-09-05T03:14:58.532Z,89.12
2018-09-05T03:15:58.534Z,89.32
2018-09-05T03:16:58.543Z,88.79
2018-09-05T03:17:58.541Z,89.12
2018-09-05T03:18:58.548Z,89.61
2018-09-05T03:19:58.558Z,89.70
2018-09-05T03:20:58.562Z,89.22
2018-09-05T03:21:58.569Z,89.41
2018-09-05T03:22:58.568Z,88.93
2018-09-05T03:23:58.572Z,89.41
2018-09-05T03:24:58.585Z,89.32
2018-09-05T03:25:58.588Z,89.70
2018-09-05T03:26:58.589Z,88.65
2018-09-05T03:27:58.596Z,88.79
2018-09-05T03:28:59.539Z,88.45
2018-09-05T03:29:58.602Z,89.12
2018-09-05T03:30:58.611Z,88.93
2018-09-05T03:31:58.619Z,88.65
2018-09-05T03:32:58.660Z,89.12
2018-09-05T03:33:58.624Z,89.12
2018-09-05T03:34:58.644Z,88.55
2018-09-05T03:35:58.631Z,89.22
2018-09-05T03:36:58.648Z,89.89
2018-09-05T03:37:58.644Z,89.51
2018-09-05T03:38:58.652Z,89.51
2018-09-05T03:39:58.660Z,90.66
2018-09-05T03:40:58.667Z,90.85
2018-09-05T03:41:58.663Z,89.79
2018-09-05T03:42:58.668Z,89.32
2018-09-05T03:43:58.673Z,88.55
2018-09-05T03:44:58.679Z,89.12
2018-09-05T03:45:58.686Z,89.03
2018-09-05T03:46:58.692Z,88.35
2018-09-05T03:47:58.699Z,88.65
2018-09-05T03:48:58.707Z,88.26
2018-09-05T03:49:58.701Z,88.26
2018-09-05T03:50:58.720Z,89.12
2018-09-05T03:51:58.717Z,88.35
2018-09-05T03:52:58.720Z,88.35
2018-09-05T03:53:58.729Z,88.93
2018-09-05T03:54:58.736Z,89.51
2018-09-05T03:55:58.735Z,89.89
2018-09-05T03:56:58.752Z,90.04
2018-09-05T03:57:58.747Z,90.52
2018-09-05T03:58:58.750Z,90.04
2018-09-05T03:59:58.758Z,89.12
2018-09-05T04:00:58.755Z,89.85
2018-09-05T04:01:58.785Z,89.79
2018-09-05T04:02:58.765Z,89.61
2018-09-05T04:03:58.779Z,88.93
2018-09-05T04:04:58.843Z,89.12
2018-09-05T04:05:58.780Z,89.22
2018-09-05T04:06:58.790Z,88.74
2018-09-05T04:07:58.792Z,88.74
2018-09-05T04:08:58.796Z,88.93
2018-09-05T04:09:58.805Z,88.55
2018-09-05T04:10:58.816Z,89.37
2018-09-05T04:11:58.842Z,89.79
2018-09-05T04:12:58.815Z,89.61
2018-09-05T04:13:58.845Z,89.94
2018-09-05T04:14:58.834Z,89.70
2018-09-05T04:15:58.828Z,89.22
2018-09-05T04:16:58.833Z,89.22
2018-09-05T04:17:58.848Z,89.22
2018-09-05T04:18:58.848Z,89.32
2018-09-05T04:19:58.871Z,88.65
2018-09-05T04:20:58.865Z,88.98
2018-09-05T04:21:58.883Z,89.27
2018-09-05T04:22:58.876Z,89.75
2018-09-05T04:23:58.872Z,89.51
2018-09-05T04:24:58.884Z,89.03
2018-09-05T04:25:58.904Z,89.32
2018-09-05T04:26:58.887Z,89.51
2018-09-05T04:27:58.894Z,89.56
2018-09-05T04:28:58.905Z,89.47
2018-09-05T04:29:58.971Z,89.94
2018-09-05T04:30:58.911Z,89.41
2018-09-05T04:31:58.905Z,89.32
2018-09-05T04:32:58.914Z,89.22
2018-09-05T04:33:58.917Z,88.45
2018-09-05T04:34:58.925Z,88.60
2018-09-05T04:35:58.925Z,89.65
2018-09-05T04:36:58.930Z,89.08
2018-09-05T04:37:58.936Z,89.47
2018-09-05T04:38:58.938Z,89.47
2018-09-05T04:39:58.952Z,89.32
2018-09-05T04:40:58.950Z,89.03
2018-09-05T04:41:58.951Z,88.55
2018-09-05T04:42:58.958Z,88.55
2018-09-05T04:43:58.961Z,89.56
2018-09-05T04:44:58.979Z,89.27
2018-09-05T04:45:58.979Z,89.51
2018-09-05T04:46:58.979Z,89.41
2018-09-05T04:47:58.982Z,89.47
2018-09-05T04:48:58.987Z,89.85
2018-09-05T04:49:58.991Z,90.33
2018-09-05T04:50:59.000Z,89.47
2018-09-05T04:51:59.005Z,89.65
2018-09-05T04:52:59.011Z,89.41
2018-09-05T04:53:59.010Z,89.03
2018-09-05T04:54:59.021Z,89.65
2018-09-05T04:55:59.024Z,89.32
2018-09-05T04:56:59.092Z,88.45
2018-09-05T04:57:59.041Z,88.45
2018-09-05T04:58:59.035Z,88.26
2018-09-05T04:59:59.038Z,89.12
2018-09-05T05:00:59.045Z,89.03
2018-09-05T05:01:59.054Z,88.26
2018-09-05T05:02:59.052Z,88.17
2018-09-05T05:03:59.057Z,89.37
2018-09-05T05:04:59.063Z,88.79
2018-09-05T05:05:59.067Z,89.03
2018-09-05T05:06:59.077Z,89.37
2018-09-05T05:07:59.090Z,89.27
2018-09-05T05:08:59.097Z,89.70
2018-09-05T05:09:59.089Z,89.37
2018-09-05T05:10:59.090Z,89.94
2018-09-05T05:11:59.117Z,89.94
2018-09-05T05:12:59.099Z,90.33
2018-09-05T05:13:59.107Z,89.41
2018-09-05T05:14:59.111Z,89.70
2018-09-05T05:15:59.117Z,89.61
2018-09-05T05:16:59.119Z,90.04
2018-09-05T05:17:59.126Z,90.61
2018-09-05T05:18:59.133Z,90.61
2018-09-05T05:19:59.135Z,89.79
2018-09-05T05:20:59.148Z,89.22
2018-09-05T05:21:59.146Z,89.65
2018-09-05T05:22:59.156Z,89.61
2018-09-05T05:23:59.170Z,89.70
2018-09-05T05:24:59.165Z,89.89
2018-09-05T05:25:59.164Z,89.85
2018-09-05T05:26:59.171Z,90.04
2018-09-05T05:27:59.169Z,90.14
2018-09-05T05:28:59.176Z,90.61
2018-09-05T05:29:59.181Z,90.23
2018-09-05T05:30:59.184Z,89.94
2018-09-05T05:31:59.190Z,90.52
2018-09-05T05:32:59.257Z,90.71
2018-09-05T05:33:59.199Z,90.61
2018-09-05T05:34:59.206Z,90.28
2018-09-05T05:35:59.217Z,89.61
2018-09-05T05:36:59.225Z,89.61
2018-09-05T05:37:59.225Z,89.51
2018-09-05T05:38:59.226Z,89.41
2018-09-05T05:39:59.227Z,90.47
2018-09-05T05:40:59.234Z,90.47
2018-09-05T05:41:59.247Z,90.47
2018-09-05T05:42:59.248Z,90.18
2018-09-05T05:43:59.247Z,90.95
2018-09-05T05:44:59.255Z,90.08
2018-09-05T05:45:59.256Z,90.56
2018-09-05T05:46:59.263Z,90.85
2018-09-05T05:47:59.272Z,90.47
2018-09-05T05:48:59.276Z,90.37
2018-09-05T05:49:59.312Z,90.08
2018-09-05T05:50:59.335Z,90.08
2018-09-05T05:51:59.289Z,90.56
2018-09-05T05:52:59.296Z,90.18
2018-09-05T05:53:59.316Z,90.22
2018-09-05T05:54:59.367Z,89.07
2018-09-05T05:55:59.315Z,89.51
2018-09-05T05:56:59.313Z,90.08
2018-09-05T05:57:59.319Z,89.46
2018-09-05T05:58:59.325Z,88.88
2018-09-05T05:59:59.328Z,89.17
2018-09-05T06:00:59.412Z,89.84
2018-09-05T06:01:59.335Z,89.65
2018-09-05T06:02:59.346Z,89.55
2018-09-05T06:03:59.346Z,89.55
2018-09-05T06:04:59.353Z,89.46
2018-09-05T06:05:59.376Z,90.03
2018-09-05T06:06:59.367Z,89.75
2018-09-05T06:07:59.369Z,89.26
2018-09-05T06:08:59.378Z,88.88
2018-09-05T06:09:59.379Z,89.17
2018-09-05T06:10:59.382Z,88.69
2018-09-05T06:11:59.448Z,88.69
2018-09-05T06:12:59.392Z,88.98
2018-09-05T06:13:59.396Z,89.55
2018-09-05T06:14:59.400Z,88.35
2018-09-05T06:15:59.404Z,88.73
2018-09-05T06:16:59.423Z,88.25
2018-09-05T06:17:59.476Z,88.64
2018-09-05T06:18:59.480Z,88.54
2018-09-05T06:19:59.427Z,88.54
2018-09-05T06:20:59.445Z,87.87
2018-09-05T06:21:59.438Z,87.19
2018-09-05T06:22:59.444Z,87.19
2018-09-05T06:23:59.475Z,87.68
2018-09-05T06:24:59.457Z,87.39
2018-09-05T06:25:59.472Z,87.87
2018-09-05T06:26:59.470Z,87.19
2018-09-05T06:27:59.473Z,86.91
2018-09-05T06:29:00.456Z,87.62
2018-09-05T06:29:59.481Z,86.95
2018-09-05T06:30:59.630Z,87.62
2018-09-05T06:31:59.501Z,87.05
2018-09-05T06:32:59.503Z,87.34
2018-09-05T06:33:59.509Z,87.15
2018-09-05T06:34:59.513Z,86.47
2018-09-05T06:35:59.535Z,86.57
2018-09-05T06:36:59.592Z,87.15
2018-09-05T06:37:59.536Z,87.05
2018-09-05T06:38:59.568Z,86.57
2018-09-05T06:39:59.531Z,87.15
2018-09-05T06:40:59.534Z,87.15
2018-09-05T06:41:59.550Z,87.24
2018-09-05T06:42:59.546Z,86.95
2018-09-05T06:44:00.530Z,86.85
2018-09-05T06:44:59.583Z,87.05
2018-09-05T06:45:59.597Z,87.05
2018-09-05T06:46:59.567Z,87.24
2018-09-05T06:47:59.582Z,87.43
2018-09-05T06:48:59.580Z,86.90
2018-09-05T06:49:59.595Z,87.05
2018-09-05T06:50:59.592Z,86.90
2018-09-05T06:51:59.601Z,86.71
2018-09-05T06:52:59.605Z,87.09
2018-09-05T06:53:59.611Z,87.19
2018-09-05T06:54:59.620Z,86.99
2018-09-05T06:55:59.621Z,86.71
2018-09-05T06:56:59.630Z,86.22
2018-09-05T06:57:59.651Z,86.90
2018-09-05T06:58:59.651Z,86.71
2018-09-05T06:59:59.644Z,86.04
2018-09-05T07:00:59.658Z,87.09
2018-09-05T07:01:59.656Z,85.75
2018-09-05T07:03:00.114Z,86.71
2018-09-05T07:03:59.671Z,86.61
2018-09-05T07:04:59.672Z,86.71
2018-09-05T07:05:59.676Z,86.99
2018-09-05T07:06:59.709Z,85.78
2018-09-05T07:07:59.697Z,85.88
2018-09-05T07:08:59.698Z,85.60
2018-09-05T07:09:59.707Z,85.50
2018-09-05T07:10:59.754Z,85.69
2018-09-05T07:11:59.717Z,85.50
2018-09-05T07:12:59.719Z,84.83
2018-09-05T07:13:59.731Z,85.11
2018-09-05T07:14:59.742Z,84.25
2018-09-05T07:15:59.747Z,84.97
2018-09-05T07:17:00.773Z,85.54
2018-09-05T07:17:59.777Z,84.48
2018-09-05T07:18:59.773Z,84.97
2018-09-05T07:19:59.777Z,84.39
2018-09-05T07:21:05.689Z,84.77
2018-09-05T07:21:59.825Z,84.97
2018-09-05T07:22:59.790Z,85.06
2018-09-05T07:23:59.783Z,84.58
2018-09-05T07:24:59.871Z,84.87
2018-09-05T07:25:59.801Z,85.54
2018-09-05T07:26:59.805Z,84.48
2018-09-05T07:27:59.811Z,84.72
2018-09-05T07:28:59.824Z,83.95
2018-09-05T07:29:59.827Z,84.53
2018-09-05T07:30:59.953Z,83.47
2018-09-05T07:31:59.849Z,84.23
2018-09-05T07:32:59.846Z,84.72
2018-09-05T07:33:59.876Z,84.81
2018-09-05T07:34:59.858Z,84.33
2018-09-05T07:36:00.897Z,84.33
2018-09-05T07:36:59.873Z,83.95
2018-09-05T07:37:59.884Z,83.37
2018-09-05T07:38:59.906Z,84.14
2018-09-05T07:39:59.900Z,84.28
2018-09-05T07:40:59.926Z,83.61
2018-09-05T07:42:00.857Z,83.70
2018-09-05T07:42:59.914Z,83.89
2018-09-05T07:43:59.981Z,83.61
2018-09-05T07:44:59.934Z,83.22
2018-09-05T07:45:59.933Z,83.03
2018-09-05T07:46:59.940Z,82.93
2018-09-05T07:47:59.958Z,82.93
2018-09-05T07:48:59.965Z,82.74
2018-09-05T07:49:59.982Z,82.83
2018-09-05T07:50:59.970Z,82.45
2018-09-05T07:51:59.973Z,82.29
2018-09-05T07:52:59.999Z,82.39
2018-09-05T07:54:00.088Z,81.91
2018-09-05T07:55:00.006Z,81.33
2018-09-05T07:56:00.013Z,81.33
2018-09-05T07:57:00.011Z,81.04
2018-09-05T07:58:01.143Z,81.72
2018-09-05T07:59:00.017Z,81.43
2018-09-05T08:00:00.023Z,81.72
2018-09-05T08:01:00.122Z,82.10
2018-09-05T08:02:00.039Z,81.33
2018-09-05T08:03:00.102Z,81.43
2018-09-05T08:04:00.057Z,81.72
2018-09-05T08:05:00.062Z,81.33
2018-09-05T08:06:00.059Z,81.24
2018-09-05T08:07:00.065Z,81.76
2018-09-05T08:08:01.133Z,81.43
2018-09-05T08:09:00.082Z,81.27
2018-09-05T08:10:00.086Z,80.79
2018-09-05T08:11:00.108Z,80.69
2018-09-05T08:12:00.102Z,80.02
2018-09-05T08:13:00.117Z,80.02
2018-09-05T08:14:00.147Z,80.31
2018-09-05T08:15:00.135Z,79.83
2018-09-05T08:16:00.173Z,80.31
2018-09-05T08:17:00.138Z,80.22
2018-09-05T08:18:00.193Z,80.02
2018-09-05T08:19:00.150Z,79.97
2018-09-05T08:20:00.155Z,79.87
2018-09-05T08:21:00.181Z,80.26
2018-09-05T08:22:00.172Z,80.16
2018-09-05T08:23:00.189Z,79.68
2018-09-05T08:24:00.227Z,79.49
2018-09-05T08:25:00.195Z,79.68
2018-09-05T08:26:00.204Z,78.94
2018-09-05T08:27:00.212Z,78.75
2018-09-05T08:28:00.216Z,79.24
2018-09-05T08:29:00.296Z,79.72
2018-09-05T08:30:00.289Z,79.58
2018-09-05T08:31:00.239Z,79.91
2018-09-05T08:32:00.245Z,78.85
2018-09-05T08:33:00.277Z,79.04
2018-09-05T08:34:00.270Z,79.33
2018-09-05T08:35:00.392Z,79.33
2018-09-05T08:36:00.704Z,79.14
2018-09-05T08:37:00.567Z,79.04
2018-09-05T08:38:00.375Z,78.75
2018-09-05T08:39:00.443Z,78.08
2018-09-05T08:40:00.352Z,78.66
2018-09-05T08:41:00.357Z,78.69
2018-09-05T08:42:00.403Z,78.41
2018-09-05T08:43:00.362Z,77.73
2018-09-05T08:44:00.397Z,77.92
2018-09-05T08:45:00.702Z,77.53
2018-09-05T08:46:00.493Z,76.67
2018-09-05T08:47:00.485Z,76.67
2018-09-05T08:48:00.502Z,76.47
2018-09-05T08:49:00.429Z,75.89
2018-09-05T08:50:00.415Z,75.99
2018-09-05T08:51:00.519Z,75.70
2018-09-05T08:52:00.456Z,76.76
2018-09-05T08:53:00.526Z,76.86
2018-09-05T08:54:00.477Z,76.47
2018-09-05T08:55:00.494Z,75.64
2018-09-05T08:56:00.525Z,75.93
2018-09-05T08:57:00.568Z,74.77
2018-09-05T08:58:00.466Z,74.87
2018-09-05T08:59:00.473Z,74.68
2018-09-05T09:00:00.556Z,74.87
2018-09-05T09:01:00.559Z,74.58
2018-09-05T09:02:00.529Z,74.68
2018-09-05T09:03:00.551Z,74.52
2018-09-05T09:04:00.501Z,73.55
2018-09-05T09:05:00.545Z,73.46
2018-09-05T09:06:00.528Z,73.84
2018-09-05T09:07:00.533Z,73.46
2018-09-05T09:08:00.593Z,73.16
2018-09-05T09:09:00.552Z,72.78
2018-09-05T09:10:00.562Z,72.49
2018-09-05T09:11:00.562Z,72.49
2018-09-05T09:12:00.570Z,72.20
2018-09-05T09:13:00.575Z,72.10
2018-09-05T09:14:00.589Z,72.10
2018-09-05T09:15:00.603Z,72.24
2018-09-05T09:16:00.610Z,72.20
2018-09-05T09:17:00.610Z,72.49
2018-09-05T09:18:00.637Z,72.10
2018-09-05T09:19:00.626Z,71.81
2018-09-05T09:20:00.644Z,71.56
2018-09-05T09:21:00.657Z,71.46
2018-09-05T09:22:00.658Z,70.98
2018-09-05T09:23:00.670Z,70.98
2018-09-05T09:24:00.693Z,70.88
2018-09-05T09:25:00.679Z,70.88
2018-09-05T09:26:00.691Z,70.01
2018-09-05T09:27:00.699Z,70.62
2018-09-05T09:28:00.784Z,69.66
2018-09-05T09:29:00.727Z,69.17
2018-09-05T09:30:00.724Z,69.37
2018-09-05T09:31:00.795Z,70.04
2018-09-05T09:32:00.743Z,69.85
2018-09-05T09:33:00.757Z,69.66
2018-09-05T09:34:00.766Z,69.37
2018-09-05T09:35:00.768Z,69.46
2018-09-05T09:36:00.776Z,69.27
2018-09-05T09:37:00.795Z,69.46
2018-09-05T09:38:00.802Z,68.79
2018-09-05T09:39:00.809Z,68.30
2018-09-05T09:40:00.813Z,68.15
2018-09-05T09:41:00.918Z,68.63
2018-09-05T09:42:00.849Z,68.15
2018-09-05T09:43:00.842Z,69.31
2018-09-05T09:44:00.850Z,68.33
2018-09-05T09:45:00.857Z,68.43
2018-09-05T09:46:00.868Z,68.73
2018-09-05T09:47:01.925Z,68.43
2018-09-05T09:48:00.883Z,68.33
2018-09-05T09:49:00.903Z,68.53
2018-09-05T09:50:00.908Z,68.15
2018-09-05T09:51:00.912Z,68.15
2018-09-05T09:52:00.972Z,67.46
2018-09-05T09:53:00.975Z,67.40
2018-09-05T09:54:00.999Z,67.37
2018-09-05T09:55:00.953Z,67.50
2018-09-05T09:56:00.973Z,67.98
2018-09-05T09:57:00.995Z,67.79
2018-09-05T09:58:00.991Z,67.60
2018-09-05T09:59:01.006Z,67.88
2018-09-05T10:00:01.008Z,66.92
2018-09-05T10:01:01.038Z,66.82
2018-09-05T10:02:01.026Z,66.72
2018-09-05T10:03:01.035Z,66.14
2018-09-05T10:04:01.105Z,66.05
2018-09-05T10:05:01.076Z,66.34
2018-09-05T10:06:01.117Z,66.37
2018-09-05T10:07:01.163Z,65.95
2018-09-05T10:08:01.097Z,66.24
2018-09-05T10:09:01.086Z,66.43
2018-09-05T10:10:01.343Z,66.24
2018-09-05T10:11:01.102Z,65.17
2018-09-05T10:12:01.120Z,65.30
2018-09-05T10:13:01.137Z,65.30
2018-09-05T10:14:01.140Z,65.20
2018-09-05T10:15:01.396Z,65.20
2018-09-05T10:16:01.152Z,65.11
2018-09-05T10:17:01.275Z,64.62
2018-09-05T10:18:01.172Z,64.72
2018-09-05T10:19:01.193Z,65.11
2018-09-05T10:20:01.208Z,65.20
2018-09-05T10:21:01.278Z,64.72
2018-09-05T10:22:01.219Z,64.53
2018-09-05T10:23:01.224Z,65.11
2018-09-05T10:24:01.238Z,64.82
2018-09-05T10:25:01.326Z,64.95
2018-09-05T10:26:01.252Z,64.07
2018-09-05T10:27:01.264Z,64.07
2018-09-05T10:28:01.278Z,64.37
2018-09-05T10:29:01.279Z,63.69
2018-09-05T10:30:01.295Z,63.95
2018-09-05T10:31:01.304Z,64.17
2018-09-05T10:32:01.377Z,64.07
2018-09-05T10:33:01.321Z,63.69
2018-09-05T10:34:01.347Z,63.59
2018-09-05T10:35:01.375Z,63.78
2018-09-05T10:36:01.380Z,64.07
2018-09-05T10:37:01.381Z,64.27
2018-09-05T10:38:01.388Z,63.62
2018-09-05T10:39:01.423Z,63.91
2018-09-05T10:40:01.435Z,63.62
2018-09-05T10:41:01.433Z,62.72
2018-09-05T10:42:01.514Z,62.85
2018-09-05T10:43:01.436Z,62.46
2018-09-05T10:44:01.460Z,62.55
2018-09-05T10:45:01.498Z,62.85
2018-09-05T10:46:01.503Z,62.07
2018-09-05T10:47:01.478Z,62.07
2018-09-05T10:48:01.515Z,62.13
2018-09-05T10:49:01.496Z,62.16
2018-09-05T10:50:02.634Z,62.46
2018-09-05T10:51:01.509Z,62.16
2018-09-05T10:52:01.520Z,62.85
2018-09-05T10:53:01.527Z,62.07
2018-09-05T10:54:01.542Z,62.85
2018-09-05T10:55:01.549Z,62.16
2018-09-05T10:56:01.567Z,61.68
2018-09-05T10:57:01.575Z,61.78
2018-09-05T10:58:01.673Z,62.46
2018-09-05T10:59:01.590Z,61.39
2018-09-05T11:00:01.601Z,61.58
2018-09-05T11:01:01.616Z,61.78
2018-09-05T11:02:01.626Z,61.39
2018-09-05T11:03:01.632Z,60.91
2018-09-05T11:04:01.712Z,60.32
2018-09-05T11:05:01.806Z,59.77
2018-09-05T11:06:01.708Z,60.84
2018-09-05T11:07:04.416Z,60.55
2018-09-05T11:08:01.716Z,60.84
2018-09-05T11:09:01.726Z,60.23
2018-09-05T11:10:01.716Z,59.74
2018-09-05T11:11:01.825Z,60.16
2018-09-05T11:12:01.732Z,60.35
2018-09-05T11:13:01.777Z,60.52
2018-09-05T11:14:01.763Z,59.77
2018-09-05T11:15:01.758Z,59.77
2018-09-05T11:16:01.771Z,59.87
2018-09-05T11:17:01.785Z,59.38
2018-09-05T11:18:01.837Z,59.09
2018-09-05T11:19:01.805Z,58.70
2018-09-05T11:20:01.815Z,59.00
2018-09-05T11:21:01.826Z,59.03
2018-09-05T11:22:01.837Z,58.41
2018-09-05T11:23:01.843Z,58.15
2018-09-05T11:24:01.857Z,59.19
2018-09-05T11:25:01.868Z,58.61
2018-09-05T11:26:01.882Z,58.83
2018-09-05T11:27:01.889Z,58.54
2018-09-05T11:28:01.902Z,57.37
2018-09-05T11:29:01.958Z,57.86
2018-09-05T11:30:01.925Z,57.47
2018-09-05T11:31:02.103Z,57.47
2018-09-05T11:32:02.114Z,57.96
2018-09-05T11:33:01.959Z,57.76
2018-09-05T11:34:01.969Z,57.86
2018-09-05T11:35:01.990Z,58.73
2018-09-05T11:36:01.987Z,58.64
2018-09-05T11:37:02.040Z,58.64
2018-09-05T11:38:02.026Z,58.25
2018-09-05T11:39:02.040Z,58.05
2018-09-05T11:40:02.048Z,57.37
2018-09-05T11:41:02.054Z,57.08
2018-09-05T11:42:02.058Z,57.31
2018-09-05T11:43:02.069Z,57.31
2018-09-05T11:44:02.091Z,57.11
2018-09-05T11:45:02.105Z,57.21
2018-09-05T11:46:02.113Z,57.11
2018-09-05T11:47:02.114Z,56.62
2018-09-05T11:48:02.124Z,57.01
2018-09-05T11:49:02.143Z,57.40
2018-09-05T11:50:02.143Z,57.67
2018-09-05T11:51:02.167Z,57.67
2018-09-05T11:52:02.223Z,58.05
2018-09-05T11:53:02.183Z,57.96
2018-09-05T11:54:02.200Z,57.28
2018-09-05T11:55:02.202Z,57.08
2018-09-05T11:56:02.272Z,56.62
2018-09-05T11:57:02.232Z,56.24
2018-09-05T11:58:02.262Z,56.62
2018-09-05T11:59:02.250Z,55.46
2018-09-05T12:00:02.275Z,54.97
2018-09-05T12:01:02.352Z,55.85
2018-09-05T12:02:02.292Z,55.58
2018-09-05T12:03:02.328Z,55.78
2018-09-05T12:04:02.379Z,55.88
2018-09-05T12:05:02.354Z,55.58
2018-09-05T12:06:02.436Z,55.10
2018-09-05T12:07:02.371Z,55.98
2018-09-05T12:08:02.378Z,55.78
2018-09-05T12:09:02.369Z,55.78
2018-09-05T12:10:02.381Z,56.16
2018-09-05T12:11:02.397Z,56.52
2018-09-05T12:12:02.406Z,56.62
2018-09-05T12:13:02.408Z,56.56
2018-09-05T12:14:02.419Z,56.26
2018-09-05T12:15:02.544Z,55.29
2018-09-05T12:16:02.447Z,55.29
2018-09-05T12:17:02.573Z,55.39
2018-09-05T12:18:02.465Z,54.93
2018-09-05T12:19:02.531Z,54.52
2018-09-05T12:20:02.552Z,55.58
2018-09-05T12:21:02.508Z,55.71
2018-09-05T12:22:02.557Z,54.74
2018-09-05T12:23:02.535Z,54.54
2018-09-05T12:24:02.561Z,54.54
2018-09-05T12:25:02.610Z,54.42
2018-09-05T12:26:02.696Z,55.19
2018-09-05T12:27:02.605Z,55.58
2018-09-05T12:28:02.658Z,54.64
2018-09-05T12:29:02.620Z,54.64
2018-09-05T12:30:03.812Z,54.64
2018-09-05T12:31:02.615Z,55.80
2018-09-05T12:32:02.711Z,54.54
2018-09-05T12:33:02.735Z,55.22
2018-09-05T12:34:02.683Z,54.74
2018-09-05T12:35:02.749Z,54.38
2018-09-05T12:36:02.907Z,54.44
2018-09-05T12:37:02.767Z,54.54
2018-09-05T12:38:02.721Z,53.96
2018-09-05T12:39:02.919Z,54.38
2018-09-05T12:40:02.848Z,53.69
2018-09-05T12:41:02.768Z,52.62
2018-09-05T12:42:02.779Z,52.92
2018-09-05T12:43:02.933Z,51.94
2018-09-05T12:44:02.800Z,52.04
2018-09-05T12:45:02.965Z,52.04
2018-09-05T12:46:02.905Z,51.55
2018-09-05T12:47:03.331Z,51.36
2018-09-05T12:56:45.864Z,51.67
2018-09-05T13:06:20.496Z,51.02
2018-09-05T13:07:20.411Z,49.92
2018-09-05T13:08:21.410Z,50.02
2018-09-05T13:09:20.242Z,50.60
2018-09-05T13:13:11.155Z,50.41